createdAt,value
2022-10-17T00:00:44.960Z,22.48
2022-10-17T00:03:13.684Z,23.95
2022-10-17T00:05:46.390Z,22.55
2022-10-17T00:08:15.745Z,23.73
2022-10-17T00:10:42.985Z,23.98
2022-10-17T00:13:10.835Z,23.15
2022-10-17T00:15:38.552Z,24.30
2022-10-17T00:18:05.515Z,23.95
2022-10-17T00:20:35.744Z,22.42
2022-10-17T00:23:02.768Z,22.67
2022-10-17T00:25:29.895Z,22.50
2022-10-17T00:27:56.884Z,23.45
2022-10-17T00:30:23.859Z,23.45
2022-10-17T00:32:50.928Z,23.48
2022-10-17T00:35:17.959Z,25.42
2022-10-17T00:37:44.914Z,23.60
2022-10-17T00:40:12.561Z,23.17
2022-10-17T00:42:39.710Z,23.48
2022-10-17T00:45:35.281Z,24.08
2022-10-17T00:48:08.571Z,23.20
2022-10-17T00:50:38.964Z,24.30
2022-10-17T00:53:08.547Z,23.20
2022-10-17T00:55:42.448Z,23.30
2022-10-17T00:58:09.644Z,24.83
2022-10-17T01:00:37.248Z,23.67
2022-10-17T01:03:04.963Z,21.00
2022-10-17T01:05:32.499Z,23.45
2022-10-17T01:07:59.646Z,26.23
2022-10-17T01:10:50.456Z,25.58
2022-10-17T01:13:30.250Z,24.10
2022-10-17T01:16:03.630Z,26.27
2022-10-17T01:18:39.659Z,22.92
2022-10-17T01:21:06.627Z,23.88
2022-10-17T01:24:03.611Z,24.65
2022-10-17T01:26:58.324Z,23.67
2022-10-17T01:29:53.104Z,25.50
2022-10-17T01:32:37.803Z,24.38
2022-10-17T01:35:13.416Z,24.05
2022-10-17T01:37:59.356Z,23.92
2022-10-17T01:40:32.939Z,24.42
2022-10-17T01:43:08.214Z,25.30
2022-10-17T01:45:57.379Z,25.95
2022-10-17T01:48:30.070Z,26.35
2022-10-17T01:51:19.199Z,25.50
2022-10-17T01:54:05.500Z,25.92
2022-10-17T01:56:34.301Z,26.48
2022-10-17T01:59:06.498Z,25.08
2022-10-17T02:01:36.719Z,25.88
2022-10-17T02:04:05.716Z,26.80
2022-10-17T02:06:36.380Z,25.98
2022-10-17T02:09:18.015Z,25.70
2022-10-17T02:11:57.760Z,25.92
2022-10-17T02:14:42.004Z,27.17
2022-10-17T02:17:15.094Z,27.05
2022-10-17T02:20:14.836Z,27.33
2022-10-17T02:22:56.973Z,24.48
2022-10-17T02:25:29.882Z,26.85
2022-10-17T02:28:07.403Z,26.25
2022-10-17T02:30:53.810Z,26.67
2022-10-17T02:33:26.539Z,25.55
2022-10-17T02:35:57.956Z,25.73
2022-10-17T02:38:27.950Z,26.50
2022-10-17T02:40:56.081Z,25.70
2022-10-17T02:43:24.200Z,23.77
2022-10-17T02:45:52.732Z,23.95
2022-10-17T02:48:31.050Z,23.98
2022-10-17T02:51:16.588Z,25.08
2022-10-17T02:54:13.164Z,24.63
2022-10-17T02:57:10.278Z,24.10
2022-10-17T02:59:38.650Z,23.27
2022-10-17T03:02:07.039Z,21.80
2022-10-17T03:04:34.902Z,23.67
2022-10-17T03:07:01.879Z,24.05
2022-10-17T03:09:28.875Z,23.17
2022-10-17T03:11:55.850Z,22.40
2022-10-17T03:14:22.804Z,24.95
2022-10-17T03:16:49.855Z,22.95
2022-10-17T03:19:16.838Z,23.33
2022-10-17T03:21:43.802Z,21.42
2022-10-17T03:24:10.828Z,22.70
2022-10-17T03:26:37.880Z,22.27
2022-10-17T03:29:04.952Z,21.23
2022-10-17T03:31:32.068Z,22.50
2022-10-17T03:33:59.034Z,22.33
2022-10-17T03:36:26.009Z,23.00
2022-10-17T03:38:56.143Z,19.73
2022-10-17T03:41:23.162Z,22.58
2022-10-17T03:43:50.167Z,21.15
2022-10-17T03:48:45.016Z,20.48
2022-10-17T03:51:12.209Z,21.35
2022-10-17T03:53:39.301Z,21.08
2022-10-17T03:56:14.742Z,20.77
2022-10-17T03:58:42.427Z,19.30
2022-10-17T04:01:11.866Z,23.25
2022-10-17T04:03:39.243Z,22.23
2022-10-17T04:06:07.217Z,21.90
2022-10-17T04:08:34.669Z,21.80
2022-10-17T04:11:03.056Z,20.00
2022-10-17T04:13:31.107Z,21.20
2022-10-17T04:16:03.180Z,21.25
2022-10-17T04:18:30.409Z,20.85
2022-10-17T04:20:57.807Z,22.48
2022-10-17T04:23:26.616Z,20.23
2022-10-17T04:25:57.402Z,19.52
2022-10-17T04:28:25.393Z,21.73
2022-10-17T04:31:00.535Z,21.33
2022-10-17T04:33:27.775Z,20.67
2022-10-17T04:36:06.922Z,20.35
2022-10-17T04:38:34.380Z,21.60
2022-10-17T04:41:03.391Z,19.58
2022-10-17T04:43:31.575Z,21.63
2022-10-17T04:45:59.705Z,20.10
2022-10-17T04:48:26.800Z,20.58
2022-10-17T04:51:05.309Z,24.17
2022-10-17T04:53:34.053Z,20.77
2022-10-17T04:56:01.345Z,21.88
2022-10-17T04:58:31.051Z,21.30
2022-10-17T05:00:58.037Z,21.10
2022-10-17T05:03:25.123Z,21.20
2022-10-17T05:05:52.128Z,20.70
2022-10-17T05:08:19.080Z,19.60
2022-10-17T05:10:48.992Z,20.27
2022-10-17T05:13:16.052Z,19.60
2022-10-17T05:15:43.000Z,20.02
2022-10-17T05:18:09.978Z,19.05
2022-10-17T05:20:36.956Z,20.00
2022-10-17T05:23:04.003Z,21.00
2022-10-17T05:25:30.958Z,18.67
2022-10-17T05:27:57.907Z,18.70
2022-10-17T05:30:24.868Z,17.48
2022-10-17T05:32:56.129Z,18.63
2022-10-17T05:35:23.150Z,18.63
2022-10-17T05:37:50.142Z,18.67
2022-10-17T05:40:17.313Z,17.25
2022-10-17T05:42:48.935Z,16.90
2022-10-17T05:45:16.916Z,18.42
2022-10-17T05:47:43.944Z,16.55
2022-10-17T05:50:11.025Z,16.48
2022-10-17T05:52:38.287Z,16.27
2022-10-17T05:55:06.490Z,15.70
2022-10-17T05:57:34.019Z,17.38
2022-10-17T06:00:01.065Z,19.05
2022-10-17T06:02:28.366Z,16.27
2022-10-17T06:04:56.051Z,15.70
2022-10-17T06:07:23.530Z,17.05
2022-10-17T06:09:50.659Z,17.20
2022-10-17T06:12:18.099Z,15.77
2022-10-17T06:14:45.451Z,16.60
2022-10-17T06:17:16.065Z,15.50
2022-10-17T06:19:45.229Z,16.00
2022-10-17T06:22:12.791Z,15.55
2022-10-17T06:24:39.799Z,16.63
2022-10-17T06:27:10.943Z,15.45
2022-10-17T06:29:39.223Z,16.92
2022-10-17T06:32:08.731Z,15.75
2022-10-17T06:34:38.378Z,16.02
2022-10-17T06:37:05.478Z,14.32
2022-10-17T06:39:34.291Z,14.40
2022-10-17T06:42:02.605Z,15.23
2022-10-17T06:44:31.995Z,16.10
2022-10-17T06:46:59.847Z,15.70
2022-10-17T06:49:28.207Z,15.50
2022-10-17T06:51:55.289Z,15.70
2022-10-17T06:54:22.308Z,14.82
2022-10-17T06:56:49.288Z,15.25
2022-10-17T06:59:16.603Z,14.85
2022-10-17T07:01:46.258Z,14.90
2022-10-17T07:04:14.439Z,16.10
2022-10-17T07:06:41.775Z,15.52
2022-10-17T07:09:09.311Z,15.90
2022-10-17T07:11:36.804Z,15.65
2022-10-17T07:14:03.873Z,15.35
2022-10-17T07:16:30.892Z,14.77
2022-10-17T07:18:57.909Z,16.15
2022-10-17T07:21:25.504Z,14.90
2022-10-17T07:23:52.662Z,15.90
2022-10-17T07:26:20.525Z,16.17
2022-10-17T07:28:51.587Z,16.40
2022-10-17T07:31:20.356Z,16.88
2022-10-17T07:36:19.346Z,16.77
2022-10-17T07:38:46.369Z,15.93
2022-10-17T07:41:17.788Z,16.98
2022-10-17T07:43:47.961Z,16.25
2022-10-17T07:46:15.276Z,15.98
2022-10-17T07:48:42.284Z,15.57
2022-10-17T07:51:10.978Z,16.88
2022-10-17T07:53:46.431Z,16.17
2022-10-17T07:56:15.960Z,14.95
2022-10-17T07:58:43.070Z,17.15
2022-10-17T08:01:15.816Z,15.38
2022-10-17T08:03:47.284Z,15.93
2022-10-17T08:06:14.491Z,16.55
2022-10-17T08:08:41.880Z,17.10
2022-10-17T08:11:11.914Z,15.98
2022-10-17T08:13:40.405Z,16.40
2022-10-17T08:16:11.308Z,16.03
2022-10-17T08:18:40.655Z,15.13
2022-10-17T08:21:08.809Z,14.60
2022-10-17T08:23:36.588Z,15.07
2022-10-17T08:26:06.510Z,14.53
2022-10-17T08:28:35.965Z,15.43
2022-10-17T08:31:08.232Z,16.00
2022-10-17T08:33:35.338Z,16.37
2022-10-17T08:36:03.561Z,15.97
2022-10-17T08:38:35.445Z,17.20
2022-10-17T08:41:32.841Z,15.97
2022-10-17T08:44:29.921Z,17.57
2022-10-17T08:47:01.586Z,18.10
2022-10-17T08:49:52.783Z,17.10
2022-10-17T08:53:14.243Z,17.90
2022-10-17T08:55:45.898Z,17.70
2022-10-17T08:58:14.605Z,18.07
2022-10-17T09:00:48.199Z,19.47
2022-10-17T09:03:51.704Z,18.83
2022-10-17T09:06:30.103Z,17.80
2022-10-17T09:09:11.751Z,18.83
2022-10-17T09:11:47.955Z,17.80
2022-10-17T09:14:29.371Z,20.13
2022-10-17T09:17:21.168Z,18.27
2022-10-17T09:20:11.084Z,19.80
2022-10-17T09:22:58.069Z,19.93
2022-10-17T09:25:26.157Z,18.57
2022-10-17T09:27:59.467Z,18.93
2022-10-17T09:30:46.389Z,18.10
2022-10-17T09:33:28.356Z,19.57
2022-10-17T09:36:09.615Z,19.57
2022-10-17T09:38:43.168Z,19.40
2022-10-17T09:41:44.191Z,19.37
2022-10-17T09:44:20.336Z,20.60
2022-10-17T09:47:09.684Z,19.43
2022-10-17T09:49:40.137Z,19.63
2022-10-17T09:52:14.435Z,18.77
2022-10-17T09:55:15.862Z,19.27
2022-10-17T09:57:58.196Z,20.47
2022-10-17T10:00:28.925Z,19.10
2022-10-17T10:03:14.267Z,19.83
2022-10-17T10:05:42.963Z,20.40
2022-10-17T10:08:20.833Z,21.10
2022-10-17T10:11:05.657Z,19.27
2022-10-17T10:13:34.931Z,19.30
2022-10-17T10:16:16.080Z,18.73
2022-10-17T10:18:46.451Z,19.37
2022-10-17T10:21:21.896Z,17.60
2022-10-17T10:24:10.630Z,19.10
2022-10-17T10:26:40.565Z,18.30
2022-10-17T10:29:32.625Z,19.00
2022-10-17T10:32:10.304Z,19.77
2022-10-17T10:34:46.765Z,19.20
2022-10-17T10:37:27.401Z,17.87
2022-10-17T10:40:01.225Z,19.53
2022-10-17T10:42:35.902Z,18.70
2022-10-17T10:45:29.399Z,19.47
2022-10-17T10:48:24.643Z,18.57
2022-10-17T10:51:24.404Z,18.20
2022-10-17T10:54:11.841Z,19.37
2022-10-17T10:56:49.911Z,17.27
2022-10-17T10:59:37.957Z,18.03
2022-10-17T11:02:14.468Z,17.33
2022-10-17T11:04:47.457Z,16.60
2022-10-17T11:07:22.648Z,18.43
2022-10-17T11:10:23.141Z,17.37
2022-10-17T11:13:11.580Z,17.90
2022-10-17T11:15:53.953Z,16.77
2022-10-17T11:18:32.043Z,17.33
2022-10-17T11:21:11.126Z,15.70
2022-10-17T11:23:48.034Z,16.30
2022-10-17T11:26:33.130Z,16.43
2022-10-17T11:29:04.415Z,16.27
2022-10-17T11:31:35.398Z,15.87
2022-10-17T11:34:26.145Z,15.27
2022-10-17T11:37:12.285Z,15.17
2022-10-17T11:40:04.117Z,15.37
2022-10-17T11:42:38.535Z,14.00
2022-10-17T11:45:12.401Z,14.80
2022-10-17T11:47:50.734Z,16.43
2022-10-17T11:53:26.214Z,15.50
2022-10-17T11:55:54.640Z,15.10
2022-10-17T11:59:01.952Z,15.50
2022-10-17T12:01:45.537Z,15.20
2022-10-17T12:05:02.046Z,14.70
2022-10-17T12:07:57.758Z,16.70
2022-10-17T12:10:27.703Z,15.40
2022-10-17T12:12:54.761Z,14.87
2022-10-17T12:15:26.566Z,15.13
2022-10-17T12:18:02.769Z,14.20
2022-10-17T12:20:35.581Z,14.20
2022-10-17T12:23:11.056Z,13.90
2022-10-17T12:25:49.494Z,14.63
2022-10-17T12:28:30.415Z,14.17
2022-10-17T12:31:06.132Z,16.03
2022-10-17T12:33:38.267Z,13.83
2022-10-17T12:36:31.326Z,14.40
2022-10-17T12:39:04.147Z,14.20
2022-10-17T12:41:40.042Z,14.57
2022-10-17T12:44:29.402Z,13.33
2022-10-17T12:47:05.990Z,13.87
2022-10-17T12:49:44.260Z,14.70
2022-10-17T12:52:22.327Z,12.63
2022-10-17T12:55:12.152Z,14.13
2022-10-17T12:57:59.095Z,13.60
2022-10-17T13:00:34.906Z,14.33
2022-10-17T13:03:17.579Z,14.10
2022-10-17T13:05:52.680Z,12.40
2022-10-17T13:08:29.832Z,13.47
2022-10-17T13:10:58.309Z,12.80
2022-10-17T13:13:36.850Z,13.97
2022-10-17T13:16:05.460Z,13.13
2022-10-17T13:18:32.677Z,12.67
2022-10-17T13:21:03.479Z,11.53
2022-10-17T13:23:36.103Z,12.13
2022-10-17T13:26:27.720Z,13.50
2022-10-17T13:29:15.905Z,11.87
2022-10-17T13:31:45.037Z,12.80
2022-10-17T13:34:20.864Z,12.27
2022-10-17T13:36:51.566Z,11.37
2022-10-17T13:39:38.553Z,11.80
2022-10-17T13:42:27.709Z,12.17
2022-10-17T13:44:56.976Z,9.90
2022-10-17T13:47:31.066Z,12.10
2022-10-17T13:49:59.105Z,11.50
2022-10-17T13:52:30.122Z,11.37
2022-10-17T13:55:11.778Z,10.70
2022-10-17T13:57:40.508Z,12.27
2022-10-17T14:00:18.366Z,10.50
2022-10-17T14:02:45.492Z,11.10
2022-10-17T14:05:18.193Z,11.50
2022-10-17T14:08:14.235Z,12.10
2022-10-17T14:10:44.808Z,10.73
2022-10-17T14:13:34.137Z,11.27
2022-10-17T14:16:04.207Z,10.60
2022-10-17T14:18:36.463Z,11.03
2022-10-17T14:21:40.535Z,10.07
2022-10-17T14:24:22.391Z,9.90
2022-10-17T14:26:55.102Z,11.23
2022-10-17T14:29:31.075Z,10.20
2022-10-17T14:32:08.863Z,11.30
2022-10-17T14:34:40.789Z,10.83
2022-10-17T14:37:20.112Z,11.70
2022-10-17T14:39:51.228Z,11.10
2022-10-17T14:42:20.962Z,10.53
2022-10-17T14:44:53.335Z,11.70
2022-10-17T14:47:42.853Z,11.97
2022-10-17T14:50:10.759Z,11.47
2022-10-17T14:52:39.079Z,11.63
2022-10-17T14:55:25.820Z,11.43
2022-10-17T14:57:52.819Z,11.50
2022-10-17T15:00:21.957Z,12.60
2022-10-17T15:02:50.614Z,11.03
2022-10-17T15:05:18.299Z,11.27
2022-10-17T15:07:45.555Z,11.70
2022-10-17T15:10:42.009Z,11.40
2022-10-17T15:13:27.184Z,11.20
2022-10-17T15:15:55.404Z,11.57
2022-10-17T15:18:22.395Z,10.33
2022-10-17T15:20:55.350Z,10.97
2022-10-17T15:23:32.090Z,10.67
2022-10-17T15:25:59.093Z,10.83
2022-10-17T15:28:27.492Z,11.10
2022-10-17T15:30:54.581Z,9.70
2022-10-17T15:33:21.582Z,10.00
2022-10-17T15:35:48.658Z,11.17
2022-10-17T15:38:18.662Z,10.03
2022-10-17T15:40:49.180Z,10.53
2022-10-17T15:43:19.752Z,9.50
2022-10-17T15:45:47.848Z,9.33
2022-10-17T15:48:22.123Z,8.47
2022-10-17T15:50:49.186Z,9.33
2022-10-17T15:53:16.310Z,10.57
2022-10-17T15:55:43.281Z,10.20
2022-10-17T15:58:16.919Z,9.43
2022-10-17T16:00:44.681Z,9.33
2022-10-17T16:03:11.736Z,9.53
2022-10-17T16:05:38.815Z,8.07
2022-10-17T16:08:06.031Z,8.83
2022-10-17T16:10:34.069Z,9.30
2022-10-17T16:13:01.065Z,8.60
2022-10-17T16:15:28.707Z,9.43
2022-10-17T16:18:00.522Z,8.40
2022-10-17T16:20:30.026Z,8.87
2022-10-17T16:23:00.570Z,9.50
2022-10-17T16:25:29.996Z,8.40
2022-10-17T16:27:59.052Z,9.40
2022-10-17T16:30:28.713Z,8.30
2022-10-17T16:32:57.214Z,8.03
2022-10-17T16:35:26.687Z,9.20
2022-10-17T16:37:53.994Z,8.77
2022-10-17T16:40:20.999Z,8.30
2022-10-17T16:42:48.010Z,9.37
2022-10-17T16:45:21.113Z,8.20
2022-10-17T16:47:48.490Z,8.83
2022-10-17T16:50:16.067Z,7.90
2022-10-17T16:52:43.228Z,8.50
2022-10-17T16:55:10.892Z,9.07
2022-10-17T16:57:38.231Z,7.63
2022-10-17T17:00:06.746Z,7.83
2022-10-17T17:02:34.385Z,8.10
2022-10-17T17:05:01.781Z,8.30
2022-10-17T17:07:30.607Z,8.37
2022-10-17T17:09:58.351Z,7.87
2022-10-17T17:12:25.758Z,8.70
2022-10-17T17:14:52.990Z,7.60
2022-10-17T17:17:36.889Z,7.10
2022-10-17T17:20:07.949Z,8.10
2022-10-17T17:22:35.674Z,7.40
2022-10-17T17:25:03.366Z,7.83
2022-10-17T17:27:31.290Z,7.40
2022-10-17T17:29:59.215Z,7.33
2022-10-17T17:32:26.907Z,7.33
2022-10-17T17:34:56.396Z,7.23
2022-10-17T17:37:24.072Z,7.70
2022-10-17T17:39:51.552Z,7.60
2022-10-17T17:42:21.014Z,6.97
2022-10-17T17:44:50.298Z,6.90
2022-10-17T17:47:17.506Z,6.53
2022-10-17T17:49:45.354Z,7.70
2022-10-17T17:52:12.954Z,7.27
2022-10-17T17:54:41.111Z,7.50
2022-10-17T17:57:08.272Z,7.17
2022-10-17T17:59:35.980Z,7.20
2022-10-17T18:02:05.437Z,7.70
2022-10-17T18:04:32.835Z,7.07
2022-10-17T18:07:00.048Z,7.90
2022-10-17T18:09:27.299Z,7.50
2022-10-17T18:11:55.422Z,7.37
2022-10-17T18:14:26.319Z,8.03
2022-10-17T18:16:54.255Z,7.30
2022-10-17T18:19:24.612Z,7.57
2022-10-17T18:21:52.612Z,6.50
2022-10-17T18:24:20.453Z,7.10
2022-10-17T18:26:48.751Z,7.53
2022-10-17T18:29:16.686Z,7.10
2022-10-17T18:31:44.243Z,7.40
2022-10-17T18:34:11.698Z,7.37
2022-10-17T18:36:39.405Z,7.87
2022-10-17T18:39:07.849Z,6.83
2022-10-17T18:41:35.855Z,8.80
2022-10-17T18:44:03.980Z,7.67
2022-10-17T18:46:42.102Z,7.67
2022-10-17T18:49:15.548Z,8.10
2022-10-17T18:51:44.375Z,8.73
2022-10-17T18:54:21.126Z,8.00
2022-10-17T18:56:51.382Z,7.17
2022-10-17T18:59:20.924Z,8.50
2022-10-17T19:01:49.151Z,8.73
2022-10-17T19:04:17.049Z,8.00
2022-10-17T19:06:47.603Z,8.30
2022-10-17T19:09:15.988Z,8.90
2022-10-17T19:11:44.383Z,8.73
2022-10-17T19:14:15.615Z,7.77
2022-10-17T19:16:46.441Z,8.20
2022-10-17T19:19:20.081Z,9.10
2022-10-17T19:21:48.154Z,8.43
2022-10-17T19:24:26.973Z,8.10
2022-10-17T19:26:56.821Z,8.77
2022-10-17T19:29:28.656Z,9.10
2022-10-17T19:34:30.486Z,9.37
2022-10-17T19:36:57.696Z,9.37
2022-10-17T19:39:26.658Z,9.10
2022-10-17T19:41:54.515Z,9.57
2022-10-17T19:44:21.536Z,9.90
2022-10-17T19:46:49.665Z,9.27
2022-10-17T19:49:17.175Z,8.87
2022-10-17T19:51:45.046Z,9.00
2022-10-17T19:54:12.780Z,9.23
2022-10-17T19:56:40.743Z,10.00
2022-10-17T19:59:08.953Z,8.80
2022-10-17T20:01:41.125Z,9.03
2022-10-17T20:04:11.553Z,10.00
2022-10-17T20:06:40.384Z,9.20
2022-10-17T20:09:11.156Z,10.07
2022-10-17T20:11:41.305Z,10.13
2022-10-17T20:14:08.641Z,9.33
2022-10-17T20:16:36.797Z,10.90
2022-10-17T20:19:11.029Z,10.10
2022-10-17T20:21:40.079Z,10.43
2022-10-17T20:24:09.098Z,9.80
2022-10-17T20:26:38.758Z,9.40
2022-10-17T20:29:13.731Z,10.10
2022-10-17T20:31:42.347Z,9.60
2022-10-17T20:34:13.850Z,8.77
2022-10-17T20:36:41.818Z,10.50
2022-10-17T20:39:10.390Z,8.90
2022-10-17T20:41:37.368Z,9.17
2022-10-17T20:44:04.771Z,9.63
2022-10-17T20:46:44.884Z,10.37
2022-10-17T20:49:21.026Z,10.23
2022-10-17T20:51:47.994Z,10.00
2022-10-17T20:54:14.969Z,10.33
2022-10-17T20:56:42.158Z,9.20
2022-10-17T20:59:12.810Z,9.90
2022-10-17T21:01:39.915Z,10.00
2022-10-17T21:04:33.355Z,9.90
2022-10-17T21:06:54.142Z,9.50
2022-10-17T21:09:21.279Z,9.23
2022-10-17T21:11:51.507Z,9.67
2022-10-17T21:14:19.185Z,9.47
2022-10-17T21:16:46.283Z,9.40
2022-10-17T21:19:14.268Z,8.70
2022-10-17T21:21:43.690Z,9.80
2022-10-17T21:24:17.941Z,10.37
2022-10-17T21:26:46.608Z,9.40
2022-10-17T21:29:14.518Z,9.00
2022-10-17T21:31:43.728Z,9.43
2022-10-17T21:34:15.798Z,9.37
2022-10-17T21:36:42.867Z,8.97
2022-10-17T21:39:11.678Z,9.17
2022-10-17T21:41:39.084Z,8.80
2022-10-17T21:44:11.778Z,8.90
2022-10-17T21:46:38.794Z,10.63
2022-10-17T21:49:05.815Z,8.93
2022-10-17T21:51:32.947Z,8.70
2022-10-17T21:53:59.945Z,9.30
2022-10-17T21:56:28.996Z,8.50
2022-10-17T21:58:57.056Z,9.13
2022-10-17T22:01:30.064Z,8.80
2022-10-17T22:03:59.674Z,9.10
2022-10-17T22:06:44.763Z,9.23
2022-10-17T22:09:23.445Z,11.87
2022-10-17T22:11:54.591Z,9.47
2022-10-17T22:14:24.019Z,8.83
2022-10-17T22:16:51.433Z,9.10
2022-10-17T22:19:22.083Z,9.10
2022-10-17T22:21:49.780Z,9.05
2022-10-17T22:24:18.634Z,9.40
2022-10-17T22:26:46.117Z,8.83
2022-10-17T22:29:13.390Z,9.20
2022-10-17T22:31:40.985Z,8.98
2022-10-17T22:34:08.822Z,9.43
2022-10-17T22:36:36.121Z,9.73
2022-10-17T22:39:04.367Z,10.63
2022-10-17T22:41:31.857Z,8.33
2022-10-17T22:43:59.026Z,10.15
2022-10-17T22:46:26.181Z,9.47
2022-10-17T22:48:53.171Z,9.38
2022-10-17T22:51:20.273Z,8.98
2022-10-17T22:53:47.242Z,9.35
2022-10-17T22:56:17.652Z,10.15
2022-10-17T22:58:45.281Z,8.85
2022-10-17T23:03:47.389Z,9.90
2022-10-17T23:06:14.389Z,9.88
2022-10-17T23:08:41.828Z,10.07
2022-10-17T23:11:09.545Z,10.50
2022-10-17T23:13:37.397Z,10.38
2022-10-17T23:16:04.788Z,9.80
2022-10-17T23:21:03.942Z,9.80
2022-10-17T23:23:31.000Z,10.00
2022-10-17T23:26:05.039Z,10.50
2022-10-17T23:28:33.840Z,9.52
2022-10-17T23:31:12.300Z,10.30
2022-10-17T23:33:41.521Z,9.73
2022-10-17T23:36:10.774Z,10.23
2022-10-17T23:38:38.710Z,9.18
2022-10-17T23:41:05.889Z,10.25
2022-10-17T23:43:34.342Z,10.48
2022-10-17T23:46:02.408Z,8.55
2022-10-17T23:48:29.524Z,10.77
2022-10-17T23:50:57.071Z,10.15
2022-10-17T23:53:25.449Z,9.15
2022-10-17T23:55:52.939Z,9.85
2022-10-17T23:58:19.924Z,9.65
